Time;durP1;ratioP1;P1;durP2;ratioP2;P2;SDS_P1;SDS_P2;PMS_P1;PMS_P2;Temp;Humidity;BMP_temperature;BMP_pressure;BME280_temperature;BME280_humidity;BME280_pressure;Samples;Min_cycle;Max_cycle;Signal;HPM_P1;HPM_P2
2022/06/06 00:00:11;;;;;;;16.65;11.40;;;14.60;99.90;;;;;;10449530;28;20102;-90
2022/06/06 00:05:14;;;;;;;13.32;9.88;;;14.50;99.90;;;;;;10440532;28;20025;-90
2022/06/06 00:10:14;;;;;;;16.52;10.98;;;14.30;99.90;;;;;;10447161;28;20048;-89
2022/06/06 00:15:15;;;;;;;14.05;11.20;;;14.20;99.90;;;;;;10444927;28;20693;-87
2022/06/06 00:20:16;;;;;;;17.65;11.80;;;14.20;99.90;;;;;;10445439;28;20095;-87
2022/06/06 00:25:17;;;;;;;16.27;12.05;;;14.10;99.90;;;;;;10432861;28;20114;-87
2022/06/06 00:30:18;;;;;;;19.05;13.90;;;13.90;99.90;;;;;;10449532;28;20539;-88
2022/06/06 00:35:20;;;;;;;15.70;12.57;;;13.80;99.90;;;;;;10447830;28;20174;-90
2022/06/06 00:40:23;;;;;;;13.93;11.13;;;13.80;99.90;;;;;;10449873;28;20237;-88
2022/06/06 00:45:36;;;;;;;17.85;13.50;;;13.70;99.90;;;;;;10453767;28;20029;-87
2022/06/06 00:50:48;;;;;;;17.65;13.13;;;13.70;99.90;;;;;;10450309;28;20040;-85
2022/06/06 00:55:53;;;;;;;19.08;13.73;;;13.60;99.90;;;;;;10449044;28;20045;-87
2022/06/06 01:00:54;;;;;;;23.02;15.63;;;13.50;99.90;;;;;;10443203;28;20053;-86
2022/06/06 01:05:56;;;;;;;19.92;13.98;;;13.70;99.90;;;;;;10440226;28;20561;-87
2022/06/06 01:10:57;;;;;;;21.35;13.95;;;13.90;99.90;;;;;;10460552;28;20036;-87
2022/06/06 01:16:22;;;;;;;19.67;15.07;;;13.90;99.90;;;;;;10443381;28;20025;-86
2022/06/06 01:21:37;;;;;;;20.65;15.63;;;13.70;99.90;;;;;;10450102;28;20361;-87
2022/06/06 01:27:00;;;;;;;18.48;14.88;;;13.70;99.90;;;;;;10446993;28;20103;-90
2022/06/06 01:32:05;;;;;;;23.70;17.08;;;13.70;99.90;;;;;;10444497;28;20037;-86
2022/06/06 01:37:40;;;;;;;24.60;17.70;;;13.70;99.90;;;;;;10447133;28;20028;-87
2022/06/06 01:43:05;;;;;;;27.63;19.77;;;13.80;99.90;;;;;;10444873;28;20572;-86
2022/06/06 01:48:10;;;;;;;21.48;16.02;;;14.00;99.90;;;;;;10434793;28;20032;-87
2022/06/06 01:53:15;;;;;;;27.17;18.73;;;14.00;99.90;;;;;;10443240;28;20044;-89
2022/06/06 01:58:26;;;;;;;24.40;17.48;;;13.90;99.90;;;;;;10460204;28;20052;-86
2022/06/06 02:03:27;;;;;;;24.35;17.90;;;13.80;99.90;;;;;;10441419;28;20068;-87
2022/06/06 02:08:27;;;;;;;23.80;17.90;;;13.80;99.90;;;;;;10463061;28;20025;-86
2022/06/06 02:13:28;;;;;;;25.30;18.65;;;13.80;99.90;;;;;;10439722;28;20033;-87
2022/06/06 02:18:29;;;;;;;26.85;20.20;;;13.80;99.90;;;;;;10456877;28;20037;-85
2022/06/06 02:23:31;;;;;;;25.90;17.90;;;13.70;99.90;;;;;;10445755;28;20431;-86
2022/06/06 02:28:31;;;;;;;27.00;17.73;;;13.80;99.90;;;;;;10445139;28;20479;-88
2022/06/06 02:33:32;;;;;;;24.92;16.77;;;13.80;99.90;;;;;;10447007;28;20025;-87
2022/06/06 02:38:34;;;;;;;26.33;18.23;;;13.60;99.90;;;;;;10438412;28;20377;-88
2022/06/06 02:43:36;;;;;;;29.75;18.67;;;13.30;99.90;;;;;;10443186;28;20428;-87
2022/06/06 02:48:37;;;;;;;30.98;20.75;;;13.20;99.90;;;;;;10438519;28;20029;-89
2022/06/06 02:53:38;;;;;;;26.75;17.63;;;13.20;99.90;;;;;;10441139;28;20043;-85
2022/06/06 02:58:38;;;;;;;33.63;19.75;;;13.20;99.90;;;;;;10434307;28;20060;-87
2022/06/06 03:03:40;;;;;;;28.88;19.88;;;13.20;99.90;;;;;;10446734;28;20037;-86
2022/06/06 03:08:59;;;;;;;29.73;18.23;;;13.30;99.90;;;;;;10453091;28;20241;-85
2022/06/06 03:14:06;;;;;;;26.13;18.80;;;13.40;99.90;;;;;;10448888;28;20071;-86
2022/06/06 03:25:19;;;;;;;24.40;15.68;;;13.70;99.90;;;;;;10394868;28;20421;-86
2022/06/06 03:30:44;;;;;;;24.75;15.23;;;13.90;99.90;;;;;;10443062;28;20485;-86
2022/06/06 03:36:01;;;;;;;17.25;13.30;;;14.10;99.90;;;;;;10413701;28;20163;-88
2022/06/06 03:41:14;;;;;;;17.02;12.93;;;14.30;99.90;;;;;;10453063;28;20041;-86
2022/06/06 03:46:27;;;;;;;17.02;13.13;;;14.40;99.90;;;;;;10486155;28;20127;-87
2022/06/06 03:51:43;;;;;;;16.63;12.80;;;14.60;99.90;;;;;;10464324;28;20401;-87
2022/06/06 03:56:59;;;;;;;15.80;12.25;;;14.80;99.90;;;;;;10445669;28;20472;-83
2022/06/06 04:02:02;;;;;;;;;;;15.00;99.90;;;;;;10453959;28;20462;-85
2022/06/06 04:07:03;;;;;;;16.15;12.15;;;15.30;99.90;;;;;;10450641;28;19917;-89
2022/06/06 04:12:28;;;;;;;16.27;12.88;;;15.50;99.90;;;;;;10464639;28;20032;-90
2022/06/06 04:17:48;;;;;;;14.48;11.48;;;15.80;99.90;;;;;;10455251;28;20485;-85
2022/06/06 04:23:05;;;;;;;13.50;11.30;;;16.10;99.90;;;;;;10433684;28;20106;-85
2022/06/06 04:28:15;;;;;;;18.40;11.75;;;16.50;99.90;;;;;;10446928;28;20048;-86
2022/06/06 04:33:29;;;;;;;13.40;10.50;;;16.80;99.90;;;;;;10453396;28;20035;-85
2022/06/06 04:38:35;;;;;;;15.35;11.95;;;17.10;99.90;;;;;;10434902;28;20037;-85
2022/06/06 04:43:50;;;;;;;11.50;10.05;;;17.20;99.90;;;;;;10441735;28;20465;-84
2022/06/06 04:48:52;;;;;;;12.65;10.18;;;17.40;99.90;;;;;;10437480;28;20664;-84
2022/06/06 04:53:55;;;;;;;13.50;10.45;;;17.40;99.90;;;;;;10439247;28;20017;-84
2022/06/06 04:58:58;;;;;;;14.10;10.32;;;17.50;99.90;;;;;;10436461;28;20041;-86
2022/06/06 05:03:59;;;;;;;15.43;11.07;;;17.50;99.90;;;;;;10442585;28;20033;-85
2022/06/06 05:09:30;;;;;;;12.85;10.00;;;17.50;99.90;;;;;;10449355;28;20033;-85
2022/06/06 05:14:49;;;;;;;12.25;10.20;;;17.50;99.90;;;;;;10426777;28;20128;-84
2022/06/06 05:19:58;;;;;;;17.75;10.48;;;17.40;99.90;;;;;;10449318;28;20689;-83
2022/06/06 05:25:24;;;;;;;11.88;9.63;;;17.50;99.90;;;;;;10435307;28;20017;-84
2022/06/06 05:30:49;;;;;;;15.25;10.35;;;17.50;99.90;;;;;;10448574;28;20395;-85
2022/06/06 05:35:49;;;;;;;12.85;9.27;;;17.50;99.90;;;;;;10445454;28;20111;-86
2022/06/06 05:41:01;;;;;;;13.80;10.68;;;17.60;99.90;;;;;;10445277;28;20033;-84
2022/06/06 05:46:11;;;;;;;13.07;10.57;;;17.90;99.90;;;;;;10440223;28;20483;-84
2022/06/06 05:51:45;;;;;;;14.95;10.25;;;18.10;99.90;;;;;;10442211;28;20354;-85
2022/06/06 05:56:52;;;;;;;14.30;9.57;;;18.40;99.90;;;;;;10443710;28;20049;-84
2022/06/06 06:02:17;;;;;;;14.07;9.35;;;18.70;99.90;;;;;;10446112;28;20032;-83
2022/06/06 06:07:52;;;;;;;14.27;9.32;;;18.90;99.90;;;;;;10409889;28;20124;-84
2022/06/06 06:13:10;;;;;;;13.77;9.77;;;19.00;99.90;;;;;;10432224;28;20049;-85
2022/06/06 06:18:21;;;;;;;13.27;8.45;;;19.10;99.40;;;;;;10434107;28;20037;-87
2022/06/06 06:23:26;;;;;;;12.00;9.50;;;19.30;98.70;;;;;;10440644;28;20682;-85
2022/06/06 06:28:29;;;;;;;10.38;8.95;;;19.50;98.70;;;;;;10428047;28;20033;-84
2022/06/06 06:33:38;;;;;;;11.20;8.38;;;19.70;98.40;;;;;;10440459;28;20505;-86
2022/06/06 06:38:59;;;;;;;11.38;9.20;;;19.70;96.60;;;;;;10433945;28;20048;-85
2022/06/06 06:44:09;;;;;;;9.10;8.02;;;19.90;96.70;;;;;;10443032;28;20084;-85
2022/06/06 06:49:18;;;;;;;11.55;8.32;;;20.30;96.60;;;;;;10429336;28;20091;-85
2022/06/06 06:54:52;;;;;;;9.82;7.65;;;21.00;95.40;;;;;;10432519;28;20493;-87
2022/06/06 07:00:15;;;;;;;9.15;7.40;;;21.80;91.60;;;;;;10427009;28;20037;-84
2022/06/06 07:11:15;;;;;;;7.47;6.55;;;24.60;87.40;;;;;;10435836;28;20029;-88
2022/06/06 07:16:23;;;;;;;9.93;7.68;;;25.50;82.90;;;;;;10423165;28;20586;-82
2022/06/06 07:21:27;;;;;;;8.95;7.20;;;26.30;78.80;;;;;;10427149;28;20034;-84
2022/06/06 07:26:27;;;;;;;9.07;7.75;;;26.70;75.20;;;;;;10439080;28;20035;-83
2022/06/06 07:31:40;;;;;;;8.77;7.20;;;27.00;73.60;;;;;;10445513;28;20021;-83
2022/06/06 07:37:07;;;;;;;8.55;7.00;;;27.50;72.10;;;;;;10425564;28;20476;-85
2022/06/06 07:42:34;;;;;;;8.45;7.07;;;27.50;71.90;;;;;;10436307;28;20070;-82
2022/06/06 07:47:55;;;;;;;9.50;7.05;;;27.80;71.20;;;;;;10443140;28;20026;-84
2022/06/06 07:53:25;;;;;;;10.35;7.70;;;27.50;70.20;;;;;;10432832;28;20483;-86
2022/06/06 07:58:36;;;;;;;11.35;7.80;;;26.90;71.60;;;;;;10432272;28;20049;-85
2022/06/06 08:03:48;;;;;;;7.97;7.00;;;26.50;72.90;;;;;;10425805;28;20114;-83
2022/06/06 08:09:39;;;;;;;11.15;7.57;;;26.20;71.10;;;;;;10441909;28;20028;-83
2022/06/06 08:15:07;;;;;;;11.65;7.70;;;26.10;72.20;;;;;;10407086;28;20456;-84
2022/06/06 08:20:45;;;;;;;12.13;8.30;;;26.20;72.80;;;;;;10433646;28;20132;-83
2022/06/06 08:25:49;;;;;;;9.43;7.82;;;26.20;72.60;;;;;;10434676;28;20027;-83
2022/06/06 08:30:50;;;;;;;11.63;8.23;;;26.20;72.10;;;;;;10427174;28;20017;-82
2022/06/06 08:36:28;;;;;;;10.02;7.60;;;26.30;73.00;;;;;;10439775;28;20393;-84
2022/06/06 08:41:49;;;;;;;9.80;7.40;;;26.50;73.40;;;;;;10429947;28;20050;-84
2022/06/06 08:47:28;;;;;;;7.93;7.03;;;26.70;72.60;;;;;;10436373;28;20021;-83
2022/06/06 08:53:06;;;;;;;11.27;7.88;;;26.70;72.60;;;;;;10413299;28;20037;-83
2022/06/06 08:58:33;;;;;;;9.95;7.75;;;26.80;70.50;;;;;;10441866;28;20512;-84
2022/06/06 09:03:55;;;;;;;11.43;8.55;;;27.00;71.20;;;;;;10434912;28;20381;-85
2022/06/06 09:09:13;;;;;;;10.98;7.68;;;27.00;67.90;;;;;;10449528;28;20775;-89
2022/06/06 09:14:14;;;;;;;11.10;8.35;;;27.00;71.30;;;;;;10434649;28;20036;-84
2022/06/06 09:19:36;;;;;;;11.95;8.68;;;27.20;72.50;;;;;;10448166;28;20037;-85
2022/06/06 09:25:11;;;;;;;10.93;8.20;;;27.40;71.30;;;;;;10436062;28;20100;-84
2022/06/06 09:30:42;;;;;;;11.20;8.35;;;27.50;69.00;;;;;;10434893;28;20063;-83
2022/06/06 09:36:05;;;;;;;8.60;7.75;;;27.70;70.00;;;;;;10437235;28;20443;-84
2022/06/06 09:41:54;;;;;;;10.43;8.15;;;27.80;70.80;;;;;;10423997;28;20223;-84
2022/06/06 09:47:19;;;;;;;10.38;8.10;;;28.00;72.20;;;;;;10404906;28;20142;-84
2022/06/06 09:52:35;;;;;;;7.75;6.85;;;28.20;68.70;;;;;;10439391;28;20365;-86
2022/06/06 10:03:44;;;;;;;9.23;8.32;;;27.80;66.70;;;;;;10435725;28;20666;-85
2022/06/06 10:09:12;;;;;;;14.05;8.13;;;28.00;69.70;;;;;;10446178;28;20077;-83
2022/06/06 10:14:45;;;;;;;9.18;8.10;;;28.10;69.40;;;;;;10434805;28;20488;-85
2022/06/06 10:19:49;;;;;;;8.63;7.80;;;28.00;70.40;;;;;;10408810;28;20045;-84
2022/06/06 10:24:59;;;;;;;9.23;7.72;;;28.40;70.20;;;;;;10439175;28;20024;-85
2022/06/06 10:30:16;;;;;;;9.18;8.27;;;28.60;70.90;;;;;;10432167;28;20032;-85
2022/06/06 10:35:43;;;;;;;9.10;7.93;;;29.20;69.40;;;;;;10418288;28;20041;-84
2022/06/06 10:41:07;;;;;;;9.77;8.77;;;29.50;70.50;;;;;;10432678;28;20695;-82
2022/06/06 10:46:16;;;;;;;9.85;7.95;;;29.50;66.60;;;;;;10435684;28;20107;-82
2022/06/06 10:51:51;;;;;;;9.82;8.15;;;29.50;68.90;;;;;;10441261;28;20041;-83
2022/06/06 10:57:29;;;;;;;8.88;8.07;;;29.60;67.50;;;;;;10413272;28;20416;-86
2022/06/06 11:02:44;;;;;;;8.75;7.90;;;29.40;67.70;;;;;;10425586;28;20401;-85
2022/06/06 11:08:26;;;;;;;10.68;9.48;;;28.90;68.70;;;;;;10425033;28;20377;-84
2022/06/06 11:13:57;;;;;;;10.45;8.82;;;28.10;69.60;;;;;;10389423;28;20037;-85
2022/06/06 11:19:00;;;;;;;11.23;9.30;;;27.90;71.70;;;;;;10421016;28;20049;-85
2022/06/06 11:24:31;;;;;;;11.18;9.57;;;28.00;73.00;;;;;;10427278;28;20187;-84
2022/06/06 11:30:06;;;;;;;9.82;8.50;;;28.60;71.50;;;;;;10426828;28;20033;-84
2022/06/06 11:35:27;;;;;;;9.27;8.38;;;29.00;67.70;;;;;;10427930;28;20030;-83
2022/06/06 11:41:05;;;;;;;9.63;8.63;;;29.00;70.10;;;;;;10423031;28;20377;-85
2022/06/06 11:46:12;;;;;;;9.80;8.80;;;28.80;70.60;;;;;;10428205;28;20040;-84
2022/06/06 11:51:25;;;;;;;10.75;9.23;;;28.50;70.80;;;;;;10436327;28;20094;-85
2022/06/06 11:57:01;;;;;;;9.85;8.95;;;28.40;72.50;;;;;;10441127;28;20392;-85
2022/06/06 12:02:29;;;;;;;10.55;9.25;;;28.50;71.00;;;;;;10418666;28;20033;-84
2022/06/06 12:07:45;;;;;;;12.13;8.93;;;28.50;70.80;;;;;;10438867;28;20024;-85
2022/06/06 12:13:26;;;;;;;9.70;8.77;;;28.40;71.80;;;;;;10439988;28;20061;-85
2022/06/06 12:18:39;;;;;;;8.73;7.78;;;28.40;68.90;;;;;;10450899;28;20047;-85
2022/06/06 12:24:47;;;;;;;9.63;8.55;;;28.30;71.30;;;;;;10430424;28;20456;-85
2022/06/06 12:30:25;;;;;;;9.00;8.13;;;28.10;71.80;;;;;;10401431;28;20051;-84
2022/06/06 12:35:48;;;;;;;9.70;8.80;;;27.90;73.30;;;;;;10417917;28;20508;-86
2022/06/06 12:41:07;;;;;;;11.13;8.57;;;27.90;71.50;;;;;;10438377;28;20038;-85
2022/06/06 12:46:29;;;;;;;10.15;8.68;;;27.70;71.50;;;;;;10426999;28;20416;-85
2022/06/06 12:51:58;;;;;;;8.85;7.95;;;27.30;72.50;;;;;;10435612;28;20021;-83
2022/06/06 12:57:02;;;;;;;9.88;8.88;;;26.90;72.10;;;;;;10428341;28;20056;-85
2022/06/06 13:02:24;;;;;;;10.20;9.13;;;26.40;73.80;;;;;;10433425;28;20083;-85
2022/06/06 13:07:53;;;;;;;11.93;9.18;;;26.00;75.70;;;;;;10419236;28;20547;-86
2022/06/06 13:13:03;;;;;;;12.25;9.48;;;25.70;77.40;;;;;;10428529;28;20029;-85
2022/06/06 13:18:34;;;;;;;13.25;9.00;;;25.50;77.90;;;;;;10431693;28;20035;-85
2022/06/06 13:23:51;;;;;;;14.50;10.75;;;25.50;77.40;;;;;;10432892;28;20032;-86
2022/06/06 13:28:55;;;;;;;9.52;8.25;;;25.40;77.80;;;;;;10424600;28;20531;-86
2022/06/06 13:34:28;;;;;;;10.90;7.88;;;25.40;77.70;;;;;;10428453;28;20028;-86
2022/06/06 13:40:07;;;;;;;9.50;7.47;;;25.30;78.00;;;;;;10436383;28;20090;-86
2022/06/06 13:45:18;;;;;;;8.32;7.53;;;25.40;77.50;;;;;;10374398;28;20033;-86
2022/06/06 13:51:03;;;;;;;8.85;7.25;;;25.40;77.40;;;;;;10426201;28;20063;-83
2022/06/06 13:56:14;;;;;;;;;;;25.30;79.10;;;;;;10382555;28;20140;-84
2022/06/06 14:01:30;;;;;;;13.00;7.85;;;25.10;79.50;;;;;;10440151;28;19927;-85
2022/06/06 14:06:46;;;;;;;9.43;7.53;;;24.90;81.30;;;;;;10427023;28;20025;-85
2022/06/06 14:12:06;;;;;;;8.75;6.53;;;24.70;82.60;;;;;;10416629;28;20466;-84
2022/06/06 14:17:24;;;;;;;7.38;6.38;;;24.60;83.60;;;;;;10428852;28;20059;-84
2022/06/06 14:22:33;;;;;;;6.47;5.03;;;24.40;84.10;;;;;;10439792;28;20047;-84
2022/06/06 14:27:45;;;;;;;7.10;5.15;;;24.30;84.00;;;;;;10419787;28;20025;-83
2022/06/06 14:32:52;;;;;;;7.25;5.10;;;24.00;84.40;;;;;;10435478;28;20552;-85
2022/06/06 14:38:16;;;;;;;18.25;7.75;;;23.80;85.10;;;;;;10419683;28;20049;-83
2022/06/06 14:43:23;;;;;;;5.07;3.47;;;23.60;86.00;;;;;;10420328;28;20029;-84
2022/06/06 14:48:49;;;;;;;8.13;4.30;;;23.30;86.00;;;;;;10418180;28;20444;-84
2022/06/06 14:54:02;;;;;;;9.98;6.18;;;23.10;87.10;;;;;;10426916;28;20037;-85
2022/06/06 14:59:14;;;;;;;14.90;8.35;;;22.90;87.90;;;;;;10426359;28;20052;-83
2022/06/06 15:04:24;;;;;;;8.45;5.05;;;22.70;87.90;;;;;;10419101;28;20401;-83
2022/06/06 15:09:55;;;;;;;6.60;4.30;;;22.50;88.90;;;;;;10450895;28;20032;-82
2022/06/06 15:15:09;;;;;;;7.25;3.47;;;22.40;88.30;;;;;;10407439;28;20390;-84
2022/06/06 15:20:16;;;;;;;14.38;7.22;;;22.20;88.10;;;;;;10420064;28;20045;-84
2022/06/06 15:25:25;;;;;;;14.45;5.80;;;22.10;88.70;;;;;;10406518;28;20132;-86
2022/06/06 15:30:31;;;;;;;19.42;8.15;;;22.00;88.90;;;;;;10415664;28;20022;-83
2022/06/06 15:35:38;;;;;;;11.82;6.20;;;21.90;89.60;;;;;;10414802;28;20393;-84
2022/06/06 15:41:00;;;;;;;7.57;4.85;;;21.80;90.10;;;;;;10414210;28;20037;-85
2022/06/06 15:46:06;;;;;;;6.25;3.90;;;21.70;90.50;;;;;;10424399;28;20137;-84
2022/06/06 15:51:33;;;;;;;9.27;4.50;;;21.80;91.10;;;;;;10431677;28;20025;-83
2022/06/06 15:56:45;;;;;;;8.98;5.15;;;21.70;91.50;;;;;;10425730;28;20212;-84
2022/06/06 16:01:46;;;;;;;9.48;5.97;;;21.70;91.60;;;;;;10415106;28;20124;-84
2022/06/06 16:06:50;;;;;;;18.17;9.55;;;21.70;92.10;;;;;;10419947;28;20035;-84
2022/06/06 16:11:59;;;;;;;21.47;11.73;;;21.70;91.80;;;;;;10423428;28;20025;-86
2022/06/06 16:17:07;;;;;;;13.45;7.30;;;21.70;92.20;;;;;;10421119;28;20535;-85
2022/06/06 16:22:13;;;;;;;14.05;7.80;;;21.70;92.40;;;;;;10427277;28;20104;-85
2022/06/06 16:27:43;;;;;;;9.05;5.60;;;21.70;92.60;;;;;;10426511;28;20447;-84
2022/06/06 16:32:48;;;;;;;10.77;5.80;;;21.80;93.00;;;;;;10417609;28;20477;-85
2022/06/06 16:38:02;;;;;;;7.80;4.30;;;21.80;93.10;;;;;;10420643;28;20690;-83
2022/06/06 16:48:56;;;;;;;7.97;4.47;;;21.90;93.50;;;;;;10422813;28;20034;-83
2022/06/06 16:54:09;;;;;;;9.63;6.85;;;22.00;94.30;;;;;;10419206;28;20436;-83
2022/06/06 16:59:51;;;;;;;10.88;6.68;;;22.00;94.00;;;;;;10419075;28;20052;-83
2022/06/06 17:05:11;;;;;;;9.00;6.22;;;22.00;94.30;;;;;;10424124;28;20103;-83
2022/06/06 17:10:45;;;;;;;9.07;6.15;;;22.00;94.60;;;;;;10436177;28;20472;-84
2022/06/06 17:15:46;;;;;;;5.43;3.95;;;22.00;95.20;;;;;;10425849;28;20037;-85
2022/06/06 17:20:46;;;;;;;5.50;4.15;;;21.90;95.50;;;;;;10418030;28;20068;-86
2022/06/06 17:25:49;;;;;;;5.72;3.97;;;21.80;95.90;;;;;;10408844;28;20029;-83
2022/06/06 17:31:21;;;;;;;4.90;3.85;;;21.80;96.70;;;;;;10424799;28;20053;-86
2022/06/06 17:36:26;;;;;;;6.53;4.40;;;21.80;97.20;;;;;;10438012;28;20032;-84
2022/06/06 17:41:27;;;;;;;5.38;3.97;;;21.80;98.60;;;;;;10451421;28;20041;-83
2022/06/06 17:46:56;;;;;;;7.88;5.70;;;21.70;99.30;;;;;;10447817;28;20071;-84
2022/06/06 17:52:17;;;;;;;6.03;5.18;;;21.70;99.90;;;;;;10452809;28;20033;-86
2022/06/06 17:57:27;;;;;;;11.98;6.43;;;21.70;99.90;;;;;;10444774;28;20136;-85
2022/06/06 18:02:48;;;;;;;9.50;6.68;;;21.70;99.90;;;;;;10444963;28;20438;-84
2022/06/06 18:07:58;;;;;;;10.77;7.72;;;21.70;99.90;;;;;;10428602;28;20069;-84
2022/06/06 18:13:22;;;;;;;14.82;8.23;;;21.60;99.90;;;;;;10439481;28;20052;-85
2022/06/06 18:18:27;;;;;;;10.27;6.53;;;21.50;99.90;;;;;;10428901;28;20037;-85
2022/06/06 18:23:31;;;;;;;8.45;6.00;;;21.40;99.90;;;;;;10434710;28;20044;-85
2022/06/06 18:28:55;;;;;;;13.00;7.07;;;21.40;99.90;;;;;;10437619;28;20118;-84
2022/06/06 18:34:03;;;;;;;16.77;8.10;;;21.30;99.90;;;;;;10440241;28;20032;-86
2022/06/06 18:39:05;;;;;;;13.52;7.63;;;21.20;99.90;;;;;;10437307;28;20147;-87
2022/06/06 18:44:33;;;;;;;11.25;6.88;;;21.10;99.90;;;;;;10413450;28;20057;-85
2022/06/06 18:49:34;;;;;;;8.85;5.38;;;20.90;99.90;;;;;;10416852;28;20107;-86
2022/06/06 18:54:42;;;;;;;9.07;4.75;;;20.80;99.90;;;;;;10431021;28;20119;-86
2022/06/06 18:59:49;;;;;;;9.85;7.20;;;20.70;99.90;;;;;;10415939;28;20070;-84
2022/06/06 19:04:52;;;;;;;11.27;8.77;;;20.40;99.90;;;;;;10424679;28;20032;-86
2022/06/06 19:09:58;;;;;;;9.45;7.40;;;20.10;99.90;;;;;;10418946;28;20032;-87
2022/06/06 19:15:32;;;;;;;11.40;7.80;;;19.80;99.90;;;;;;10438659;28;20485;-85
2022/06/06 19:20:54;;;;;;;12.18;7.93;;;19.60;99.90;;;;;;10431045;28;20061;-85
2022/06/06 19:25:59;;;;;;;9.85;7.18;;;19.40;99.90;;;;;;10424392;28;20121;-85
2022/06/06 19:31:23;;;;;;;8.20;7.00;;;19.20;99.90;;;;;;10433546;28;20040;-85
2022/06/06 19:36:25;;;;;;;10.18;6.72;;;19.00;99.90;;;;;;10399309;28;20042;-83
2022/06/06 19:41:28;;;;;;;10.68;6.82;;;18.90;99.90;;;;;;10436779;28;20072;-86
2022/06/06 19:46:31;;;;;;;8.25;6.88;;;18.80;99.90;;;;;;10436836;28;20082;-84
2022/06/06 19:51:41;;;;;;;12.77;7.82;;;18.80;99.90;;;;;;10425260;28;20017;-87
2022/06/06 19:56:54;;;;;;;11.30;8.02;;;18.70;99.90;;;;;;10417128;28;20115;-87
2022/06/06 20:02:02;;;;;;;9.55;7.45;;;18.70;99.90;;;;;;10419113;28;20099;-83
2022/06/06 20:07:30;;;;;;;14.93;10.05;;;18.60;99.90;;;;;;10418724;28;20048;-86
2022/06/06 20:12:32;;;;;;;15.57;10.20;;;18.60;99.90;;;;;;10416633;28;20473;-84
2022/06/06 20:17:41;;;;;;;22.40;12.65;;;18.50;99.90;;;;;;10419882;28;20120;-86
2022/06/06 20:23:05;;;;;;;23.98;14.57;;;18.50;99.90;;;;;;10422791;28;20485;-83
2022/06/06 20:28:11;;;;;;;22.13;13.55;;;18.60;99.90;;;;;;10427634;28;20029;-82
2022/06/06 20:33:11;;;;;;;15.00;10.40;;;18.70;99.90;;;;;;10418425;28;20043;-83
2022/06/06 20:38:14;;;;;;;15.73;10.25;;;18.80;99.90;;;;;;10412963;28;20037;-84
2022/06/06 20:43:34;;;;;;;17.45;10.38;;;18.80;99.90;;;;;;10426478;28;20113;-86
2022/06/06 20:48:47;;;;;;;15.70;10.25;;;18.90;99.90;;;;;;10415489;28;20469;-87
2022/06/06 20:53:52;;;;;;;19.33;11.18;;;18.80;99.90;;;;;;10421146;28;20043;-88
2022/06/06 20:58:52;;;;;;;22.45;12.68;;;18.80;99.90;;;;;;10425384;28;20079;-82
2022/06/06 21:03:53;;;;;;;33.15;16.67;;;18.80;99.90;;;;;;10444339;28;20100;-83
2022/06/06 21:08:58;;;;;;;35.38;19.63;;;18.80;99.90;;;;;;10447070;28;20358;-82
2022/06/06 21:14:02;;;;;;;34.73;18.80;;;18.80;99.90;;;;;;10453012;28;20034;-85
2022/06/06 21:19:04;;;;;;;27.02;15.93;;;18.70;99.90;;;;;;10451982;28;20836;-83
2022/06/06 21:24:10;;;;;;;25.33;15.55;;;18.60;99.90;;;;;;10453645;28;20060;-85
2022/06/06 21:29:11;;;;;;;28.48;15.52;;;18.50;99.90;;;;;;10450818;28;20029;-83
2022/06/06 21:34:11;;;;;;;25.88;16.00;;;18.30;99.90;;;;;;10437342;28;20028;-84
2022/06/06 21:39:12;;;;;;;22.63;14.70;;;18.00;99.90;;;;;;10447908;28;20044;-84
2022/06/06 21:44:13;;;;;;;24.35;15.60;;;17.80;99.90;;;;;;10456417;28;20029;-84
2022/06/06 21:49:14;;;;;;;24.42;15.75;;;17.50;99.90;;;;;;10448288;28;20036;-83
2022/06/06 21:54:20;;;;;;;23.38;16.20;;;17.30;99.90;;;;;;10441041;28;20109;-83
2022/06/06 21:59:22;;;;;;;21.27;14.48;;;17.10;99.90;;;;;;10450648;28;20040;-83
2022/06/06 22:04:25;;;;;;;24.55;16.60;;;17.00;99.90;;;;;;10441062;28;20388;-84
2022/06/06 22:09:28;;;;;;;26.65;16.55;;;16.90;99.90;;;;;;10439096;28;20033;-86
2022/06/06 22:14:31;;;;;;;26.15;17.77;;;16.70;99.90;;;;;;10447401;28;20032;-83
2022/06/06 22:19:32;;;;;;;26.85;17.80;;;16.60;99.90;;;;;;10440570;28;20036;-85
2022/06/06 22:24:33;;;;;;;23.60;15.48;;;16.50;99.90;;;;;;10441546;28;20032;-84
2022/06/06 22:29:34;;;;;;;22.40;15.43;;;16.50;99.90;;;;;;10442485;28;20099;-84
2022/06/06 22:34:35;;;;;;;23.45;14.07;;;16.40;99.90;;;;;;10438438;28;20029;-84
2022/06/06 22:39:36;;;;;;;25.05;15.57;;;16.30;99.90;;;;;;10451673;28;20028;-83
2022/06/06 22:44:37;;;;;;;21.42;14.77;;;16.30;99.90;;;;;;10444673;28;20366;-83
2022/06/06 22:49:38;;;;;;;21.67;13.82;;;16.20;99.90;;;;;;10451897;28;20037;-85
2022/06/06 22:54:38;;;;;;;22.13;14.43;;;16.10;99.90;;;;;;10438220;28;20044;-84
2022/06/06 22:59:39;;;;;;;22.27;14.13;;;16.10;99.90;;;;;;10448815;28;20540;-83
2022/06/06 23:04:40;;;;;;;19.08;12.00;;;16.10;99.90;;;;;;10441096;28;20033;-83
2022/06/06 23:09:40;;;;;;;21.20;13.15;;;16.00;99.90;;;;;;10437230;28;20033;-83
2022/06/06 23:14:41;;;;;;;18.52;12.60;;;16.00;99.90;;;;;;10458417;28;20151;-83
2022/06/06 23:19:41;;;;;;;22.20;13.73;;;16.20;99.90;;;;;;10461626;28;20047;-85
2022/06/06 23:24:42;;;;;;;17.60;11.10;;;16.20;99.90;;;;;;10444103;28;20048;-85
2022/06/06 23:29:43;;;;;;;15.43;11.15;;;16.40;99.90;;;;;;10459921;28;20037;-82
2022/06/06 23:34:43;;;;;;;17.73;10.57;;;16.50;99.90;;;;;;10443208;28;20220;-86
2022/06/06 23:39:57;;;;;;;12.40;9.13;;;16.60;99.90;;;;;;10442619;28;20030;-82
2022/06/06 23:50:25;;;;;;;13.55;8.65;;;16.70;99.90;;;;;;10446594;28;20037;-83
2022/06/06 23:55:26;;;;;;;13.13;8.60;;;16.50;99.90;;;;;;10422497;28;20508;-87
